Time;durP1;ratioP1;P1;durP2;ratioP2;P2;SDS_P1;SDS_P2;PMS_P1;PMS_P2;Temp;Humidity;BMP_temperature;BMP_pressure;BME280_temperature;BME280_humidity;BME280_pressure;Samples;Min_cycle;Max_cycle;Signal;HPM_P1;HPM_P2
2021/08/22 00:02:01;;;;;;;9.20;6.22;;;18.50;78.60;;;;;;5014302;28;20466;-89
2021/08/22 00:04:28;;;;;;;8.13;6.03;;;18.50;78.50;;;;;;5013470;28;20145;-89
2021/08/22 00:06:55;;;;;;;12.32;6.65;;;18.50;78.60;;;;;;5015048;28;20046;-89
2021/08/22 00:09:22;;;;;;;12.25;5.78;;;18.40;78.60;;;;;;5046875;28;20049;-87
2021/08/22 00:11:50;;;;;;;10.27;5.93;;;18.40;78.60;;;;;;5014966;28;20073;-88
2021/08/22 00:14:17;;;;;;;12.82;7.10;;;18.40;78.60;;;;;;5014222;28;20042;-89
2021/08/22 00:16:45;;;;;;;12.80;5.70;;;18.40;78.50;;;;;;5014644;28;20111;-88
2021/08/22 00:19:12;;;;;;;9.43;6.35;;;18.40;78.50;;;;;;5013488;28;20058;-88
2021/08/22 00:21:39;;;;;;;11.95;6.68;;;18.40;78.50;;;;;;5014737;28;20046;-87
2021/08/22 00:24:06;;;;;;;12.13;6.50;;;18.40;78.50;;;;;;5014820;28;20540;-88
2021/08/22 00:26:33;;;;;;;11.18;7.30;;;18.30;78.70;;;;;;5015409;28;20057;-88
2021/08/22 00:29:00;;;;;;;11.57;6.72;;;18.30;78.80;;;;;;5014469;28;20053;-89
2021/08/22 00:31:27;;;;;;;15.05;7.68;;;18.20;78.90;;;;;;5013301;28;20050;-88
2021/08/22 00:33:54;;;;;;;12.20;6.57;;;18.20;79.10;;;;;;5014199;28;20045;-88
2021/08/22 00:36:21;;;;;;;15.13;7.45;;;18.20;79.20;;;;;;5014517;28;20514;-88
2021/08/22 00:38:48;;;;;;;15.25;7.50;;;18.20;79.20;;;;;;5013470;28;20054;-88
2021/08/22 00:41:15;;;;;;;12.20;7.53;;;18.20;79.30;;;;;;5013676;28;20526;-88
2021/08/22 00:43:44;;;;;;;14.32;7.32;;;18.20;79.40;;;;;;5012506;28;20050;-88
2021/08/22 00:46:11;;;;;;;13.05;8.35;;;18.10;79.60;;;;;;5045101;28;20042;-89
2021/08/22 00:48:40;;;;;;;13.90;7.55;;;18.10;79.70;;;;;;5012725;28;20084;-89
2021/08/22 00:51:07;;;;;;;10.20;6.97;;;18.10;79.90;;;;;;5014207;28;20050;-89
2021/08/22 00:53:38;;;;;;;14.73;6.47;;;18.10;80.30;;;;;;5014468;28;20061;-88
2021/08/22 00:56:05;;;;;;;10.38;5.50;;;18.00;80.40;;;;;;5014313;28;20119;-88
2021/08/22 00:58:32;;;;;;;12.18;5.57;;;18.00;80.60;;;;;;5013621;28;20099;-88
2021/08/22 01:01:00;;;;;;;9.55;5.25;;;18.00;80.70;;;;;;5013578;28;20042;-89
2021/08/22 01:03:40;;;;;;;10.25;4.93;;;18.00;80.70;;;;;;5013866;28;20133;-89
2021/08/22 01:06:17;;;;;;;9.48;4.50;;;18.00;80.80;;;;;;5013817;28;20124;-87
2021/08/22 01:08:50;;;;;;;7.85;4.55;;;17.90;80.90;;;;;;5013897;28;20060;-86
2021/08/22 01:11:21;;;;;;;11.13;4.53;;;17.90;81.00;;;;;;5011272;28;20057;-87
2021/08/22 01:13:54;;;;;;;10.20;4.75;;;17.90;81.00;;;;;;5013718;28;20521;-87
2021/08/22 01:16:23;;;;;;;10.20;4.22;;;17.90;81.00;;;;;;5013408;28;20050;-88
2021/08/22 01:18:55;;;;;;;9.30;3.90;;;17.90;81.10;;;;;;5045277;28;20571;-87
2021/08/22 01:21:23;;;;;;;5.22;3.60;;;17.90;81.20;;;;;;5010727;28;20104;-88
2021/08/22 01:23:56;;;;;;;9.18;4.10;;;17.90;81.20;;;;;;5013734;28;20054;-88
2021/08/22 01:26:26;;;;;;;6.82;3.70;;;17.90;81.20;;;;;;5014055;28;20061;-87
2021/08/22 01:28:55;;;;;;;15.65;3.88;;;17.80;81.20;;;;;;5013306;28;20116;-88
2021/08/22 01:31:26;;;;;;;9.05;3.78;;;17.80;81.20;;;;;;5012298;28;20502;-86
2021/08/22 01:33:55;;;;;;;12.10;3.63;;;17.80;81.30;;;;;;5013516;28;20062;-87
2021/08/22 01:36:22;;;;;;;7.97;3.45;;;17.70;81.30;;;;;;5011612;28;20525;-87
2021/08/22 01:38:50;;;;;;;9.40;3.78;;;17.70;81.40;;;;;;5012473;28;20454;-87
2021/08/22 01:41:19;;;;;;;11.75;3.60;;;17.70;81.40;;;;;;5013619;28;20050;-88
2021/08/22 01:43:46;;;;;;;11.77;3.60;;;17.70;81.20;;;;;;5013280;28;20103;-86
2021/08/22 01:46:22;;;;;;;9.40;3.53;;;17.60;81.20;;;;;;5012541;28;20050;-88
2021/08/22 01:48:50;;;;;;;12.95;3.92;;;17.60;81.10;;;;;;5013321;28;20108;-89
2021/08/22 01:51:17;;;;;;;9.27;4.03;;;17.60;81.10;;;;;;5044773;28;20045;-89
2021/08/22 01:53:44;;;;;;;9.35;3.58;;;17.60;81.00;;;;;;5011931;28;20057;-88
2021/08/22 01:56:11;;;;;;;10.15;3.58;;;17.50;80.90;;;;;;5013492;28;20080;-88
2021/08/22 01:58:38;;;;;;;12.82;4.18;;;17.50;80.80;;;;;;5011302;28;20053;-90
2021/08/22 02:01:06;;;;;;;14.18;3.70;;;17.50;80.80;;;;;;5011408;28;20050;-89
2021/08/22 02:03:46;;;;;;;11.20;3.50;;;17.50;80.70;;;;;;5013162;28;20050;-88
2021/08/22 02:06:20;;;;;;;15.00;3.83;;;17.50;80.70;;;;;;5013274;28;20057;-89
2021/08/22 02:08:54;;;;;;;11.07;3.63;;;17.40;80.60;;;;;;5013662;28;20050;-88
2021/08/22 02:11:43;;;;;;;16.27;3.50;;;17.40;80.60;;;;;;5011839;28;20068;-88
2021/08/22 02:14:13;;;;;;;9.02;3.33;;;17.40;80.60;;;;;;5011868;28;20046;-88
2021/08/22 02:16:48;;;;;;;16.75;4.60;;;17.40;80.60;;;;;;5012511;28;20054;-88
2021/08/22 02:19:16;;;;;;;15.38;4.38;;;17.40;80.50;;;;;;5011651;28;20053;-89
2021/08/22 02:21:44;;;;;;;12.45;4.40;;;17.30;80.50;;;;;;5011380;28;20462;-89
2021/08/22 02:24:11;;;;;;;11.40;3.45;;;17.40;80.50;;;;;;5013132;28;20530;-89
2021/08/22 02:26:38;;;;;;;13.70;4.07;;;17.30;80.50;;;;;;5011728;28;20533;-87
2021/08/22 02:29:05;;;;;;;17.17;4.80;;;17.20;80.60;;;;;;5011459;28;20062;-88
2021/08/22 02:31:32;;;;;;;9.93;3.88;;;17.20;80.70;;;;;;5011751;28;20054;-89
2021/08/22 02:34:00;;;;;;;19.50;4.38;;;17.20;80.70;;;;;;5012676;28;20073;-89
2021/08/22 02:36:28;;;;;;;9.32;3.92;;;17.20;80.80;;;;;;5009035;28;20050;-90
2021/08/22 02:38:56;;;;;;;13.98;4.50;;;17.10;80.90;;;;;;5012419;28;20098;-89
2021/08/22 02:41:23;;;;;;;12.23;4.38;;;17.20;81.00;;;;;;5013062;28;20049;-89
2021/08/22 02:43:50;;;;;;;11.45;4.13;;;17.10;81.00;;;;;;5012218;28;20061;-89
2021/08/22 02:46:17;;;;;;;11.18;3.95;;;17.10;81.00;;;;;;5011266;28;20053;-88
2021/08/22 02:48:44;;;;;;;12.52;4.18;;;17.10;81.00;;;;;;5012370;28;20073;-88
2021/08/22 02:51:11;;;;;;;15.18;4.30;;;17.10;81.00;;;;;;5012602;28;20085;-88
2021/08/22 02:53:38;;;;;;;10.98;4.10;;;17.10;80.90;;;;;;5011407;28;20053;-88
2021/08/22 02:56:05;;;;;;;13.82;4.50;;;17.10;80.90;;;;;;5012552;28;20120;-88
2021/08/22 02:58:32;;;;;;;13.07;3.92;;;17.10;80.90;;;;;;5011724;28;20050;-88
2021/08/22 03:00:58;;;;;;;9.65;4.18;;;17.10;80.80;;;;;;5012413;28;20100;-89
2021/08/22 03:03:26;;;;;;;13.77;4.05;;;17.10;80.80;;;;;;5043618;28;20057;-88
2021/08/22 03:05:53;;;;;;;12.90;4.20;;;17.00;80.80;;;;;;5012339;28;20053;-90
2021/08/22 03:08:20;;;;;;;11.50;3.65;;;17.00;80.70;;;;;;5011844;28;20441;-89
2021/08/22 03:10:47;;;;;;;11.88;4.15;;;17.00;80.70;;;;;;5015358;28;20465;-89
2021/08/22 03:13:14;;;;;;;9.95;3.70;;;17.00;80.60;;;;;;5015821;28;20056;-89
2021/08/22 03:15:41;;;;;;;14.43;3.97;;;17.00;80.60;;;;;;5048003;28;20461;-89
2021/08/22 03:18:08;;;;;;;12.88;4.53;;;17.00;80.50;;;;;;5016131;28;20045;-89
2021/08/22 03:20:35;;;;;;;12.20;4.10;;;16.90;80.50;;;;;;5015428;28;20054;-89
2021/08/22 03:23:02;;;;;;;12.93;3.95;;;16.90;80.50;;;;;;5014958;28;20053;-88
2021/08/22 03:25:29;;;;;;;9.50;4.10;;;16.90;80.50;;;;;;5014725;28;20046;-89
2021/08/22 03:27:56;;;;;;;11.13;4.75;;;16.90;80.50;;;;;;5015411;28;20115;-88
2021/08/22 03:30:23;;;;;;;9.85;4.40;;;16.90;80.60;;;;;;5015999;28;20093;-87
2021/08/22 03:32:50;;;;;;;15.45;4.45;;;16.80;80.60;;;;;;5015548;28;20053;-89
2021/08/22 03:35:17;;;;;;;10.73;4.25;;;16.80;80.60;;;;;;5015092;28;20080;-88
2021/08/22 03:37:45;;;;;;;16.00;4.47;;;16.80;80.70;;;;;;5015723;28;20108;-89
2021/08/22 03:40:12;;;;;;;14.40;4.88;;;16.70;80.80;;;;;;5015810;28;20046;-88
2021/08/22 03:42:39;;;;;;;11.93;4.63;;;16.70;81.00;;;;;;5015496;28;20042;-88
2021/08/22 03:45:07;;;;;;;12.95;4.80;;;16.70;81.00;;;;;;5015766;28;20050;-89
2021/08/22 03:47:34;;;;;;;10.45;4.65;;;16.60;81.00;;;;;;5016673;28;20530;-89
2021/08/22 03:50:01;;;;;;;13.02;4.53;;;16.70;81.10;;;;;;5013906;28;20133;-88
2021/08/22 03:52:28;;;;;;;11.35;4.50;;;16.60;81.10;;;;;;5015640;28;20046;-88
2021/08/22 03:54:55;;;;;;;12.20;4.57;;;16.60;81.20;;;;;;5014354;28;20057;-89
2021/08/22 03:57:22;;;;;;;12.55;4.18;;;16.60;81.30;;;;;;5015491;28;20057;-88
2021/08/22 03:59:48;;;;;;;10.25;5.00;;;16.60;81.30;;;;;;5015719;28;20112;-89
2021/08/22 04:02:16;;;;;;;8.68;4.18;;;16.60;81.40;;;;;;5013722;28;20056;-87
2021/08/22 04:04:43;;;;;;;17.38;4.90;;;16.60;81.50;;;;;;5015217;28;20049;-89
2021/08/22 04:07:10;;;;;;;12.75;4.90;;;16.60;81.60;;;;;;5015092;28;20046;-86
2021/08/22 04:09:37;;;;;;;18.33;5.43;;;16.60;81.60;;;;;;5014660;28;20057;-88
2021/08/22 04:12:04;;;;;;;13.38;4.57;;;16.60;81.70;;;;;;4998668;28;20042;-87
2021/08/22 04:14:31;;;;;;;13.95;4.85;;;16.60;81.80;;;;;;5015592;28;20057;-89
2021/08/22 04:16:58;;;;;;;11.27;4.43;;;16.60;81.80;;;;;;5014930;28;20046;-88
2021/08/22 04:19:25;;;;;;;15.48;5.47;;;16.60;81.80;;;;;;5014690;28;20046;-87
2021/08/22 04:21:52;;;;;;;16.27;4.85;;;16.60;81.70;;;;;;5014720;28;20101;-89
2021/08/22 04:24:22;;;;;;;11.63;4.88;;;16.60;81.80;;;;;;5014855;28;20104;-87
2021/08/22 04:26:49;;;;;;;9.38;4.53;;;16.60;81.80;;;;;;5046335;28;20499;-86
2021/08/22 04:29:16;;;;;;;12.10;5.13;;;16.60;81.70;;;;;;4995757;28;20420;-87
2021/08/22 04:31:43;;;;;;;10.43;4.85;;;16.60;81.70;;;;;;5010842;28;20046;-87
2021/08/22 04:34:10;;;;;;;15.63;5.10;;;16.60;81.80;;;;;;5014562;28;20502;-87
2021/08/22 04:36:38;;;;;;;12.07;5.63;;;16.60;81.80;;;;;;5015160;28;20119;-87
2021/08/22 04:39:04;;;;;;;16.40;5.15;;;16.50;81.80;;;;;;4998742;28;20053;-87
2021/08/22 04:41:31;;;;;;;13.35;4.95;;;16.50;81.80;;;;;;5011046;28;20041;-88
2021/08/22 04:43:58;;;;;;;18.95;5.50;;;16.50;81.80;;;;;;5014162;28;20061;-88
2021/08/22 04:46:25;;;;;;;11.50;5.00;;;16.50;81.70;;;;;;5014499;28;20041;-88
2021/08/22 04:48:52;;;;;;;16.27;5.72;;;16.50;81.70;;;;;;5014648;28;20053;-88
2021/08/22 04:51:19;;;;;;;12.02;5.25;;;16.50;81.70;;;;;;5045477;28;20047;-87
2021/08/22 04:53:46;;;;;;;15.23;5.22;;;16.50;81.70;;;;;;5014177;28;20060;-88
2021/08/22 04:56:13;;;;;;;13.30;5.32;;;16.50;81.80;;;;;;5015010;28;20054;-87
2021/08/22 04:58:40;;;;;;;14.23;5.32;;;16.50;81.80;;;;;;5013922;28;20058;-87
2021/08/22 05:01:07;;;;;;;14.18;5.47;;;16.50;81.80;;;;;;5014362;28;20064;-88
2021/08/22 05:03:34;;;;;;;16.83;6.05;;;16.40;81.80;;;;;;5014305;28;20133;-87
2021/08/22 05:06:01;;;;;;;13.95;4.80;;;16.40;81.80;;;;;;5011621;28;20046;-89
2021/08/22 05:08:28;;;;;;;9.30;4.75;;;16.40;81.80;;;;;;5014181;28;20107;-89
2021/08/22 05:10:55;;;;;;;17.10;5.85;;;16.40;81.80;;;;;;5013612;28;20065;-88
2021/08/22 05:13:23;;;;;;;14.30;5.22;;;16.40;81.90;;;;;;5013136;28;20069;-88
2021/08/22 05:15:51;;;;;;;11.43;5.35;;;16.40;82.00;;;;;;5013872;28;20049;-87
2021/08/22 05:18:18;;;;;;;15.35;5.93;;;16.40;82.00;;;;;;5013998;28;20456;-87
2021/08/22 05:20:45;;;;;;;15.18;5.72;;;16.40;82.10;;;;;;5013947;28;20172;-86
2021/08/22 05:23:12;;;;;;;15.07;5.68;;;16.40;82.20;;;;;;5013585;28;20518;-86
2021/08/22 05:25:39;;;;;;;15.65;5.40;;;16.40;82.30;;;;;;5013694;28;20074;-86
2021/08/22 05:28:06;;;;;;;12.48;5.30;;;16.40;82.40;;;;;;5013549;28;20062;-87
2021/08/22 05:30:33;;;;;;;12.15;5.60;;;16.40;82.40;;;;;;5013766;28;20092;-86
2021/08/22 05:33:01;;;;;;;11.75;5.90;;;16.40;82.50;;;;;;5012852;28;20052;-87
2021/08/22 05:35:28;;;;;;;16.90;6.25;;;16.40;82.50;;;;;;5013977;28;20499;-86
2021/08/22 05:37:55;;;;;;;16.40;6.72;;;16.40;82.60;;;;;;5013615;28;20549;-86
2021/08/22 05:40:22;;;;;;;14.43;5.93;;;16.40;82.70;;;;;;5013565;28;20046;-87
2021/08/22 05:42:49;;;;;;;16.70;5.65;;;16.40;82.70;;;;;;5012607;28;20053;-86
2021/08/22 05:45:17;;;;;;;13.27;5.43;;;16.40;82.80;;;;;;5012567;28;20054;-85
2021/08/22 05:47:44;;;;;;;15.88;5.40;;;16.40;82.80;;;;;;5013612;28;20490;-88
2021/08/22 05:50:11;;;;;;;14.35;6.03;;;16.40;82.90;;;;;;5012703;28;20054;-86
2021/08/22 05:52:38;;;;;;;15.32;6.50;;;16.40;82.90;;;;;;5012802;28;20065;-86
2021/08/22 05:55:09;;;;;;;18.30;6.20;;;16.50;83.00;;;;;;5013412;28;20046;-85
2021/08/22 05:57:38;;;;;;;22.17;6.10;;;16.50;83.00;;;;;;5013091;28;20046;-86
2021/08/22 06:00:06;;;;;;;17.58;5.78;;;16.50;83.00;;;;;;4997705;28;20050;-84
2021/08/22 06:02:35;;;;;;;16.52;6.28;;;16.50;83.00;;;;;;5009514;28;20042;-86
2021/08/22 06:05:05;;;;;;;18.75;6.07;;;16.50;83.00;;;;;;5012866;28;20052;-85
2021/08/22 06:07:32;;;;;;;11.73;5.53;;;16.60;83.00;;;;;;5012466;28;20046;-85
2021/08/22 06:09:59;;;;;;;18.05;5.25;;;16.60;83.00;;;;;;5010526;28;20062;-87
2021/08/22 06:12:27;;;;;;;16.83;5.47;;;16.60;83.10;;;;;;5011722;28;20462;-86
2021/08/22 06:14:54;;;;;;;15.90;5.72;;;16.60;83.00;;;;;;5011558;28;20104;-86
2021/08/22 06:17:21;;;;;;;16.45;5.38;;;16.60;83.00;;;;;;5013614;28;20404;-86
2021/08/22 06:19:48;;;;;;;21.50;6.70;;;16.60;83.10;;;;;;5013030;28;20081;-87
2021/08/22 06:22:15;;;;;;;16.13;5.90;;;16.60;83.10;;;;;;5012786;28;20050;-88
2021/08/22 06:24:41;;;;;;;18.13;6.30;;;16.60;83.10;;;;;;5009376;28;20458;-86
2021/08/22 06:27:14;;;;;;;11.68;5.30;;;16.60;83.20;;;;;;5013004;28;20129;-86
2021/08/22 06:29:42;;;;;;;17.15;5.22;;;16.60;83.20;;;;;;5012996;28;20056;-87
2021/08/22 06:32:09;;;;;;;14.77;5.95;;;16.60;83.30;;;;;;5013268;28;20058;-86
2021/08/22 06:34:36;;;;;;;12.50;6.22;;;16.60;83.40;;;;;;5013318;28;20084;-85
2021/08/22 06:37:03;;;;;;;14.65;5.63;;;16.60;83.40;;;;;;5004474;28;20104;-85
2021/08/22 06:39:30;;;;;;;14.27;5.07;;;16.60;83.40;;;;;;5013037;28;20041;-86
2021/08/22 06:41:57;;;;;;;16.55;5.22;;;16.70;83.50;;;;;;5012791;28;20050;-86
2021/08/22 06:44:24;;;;;;;13.35;5.32;;;16.60;83.50;;;;;;5012023;28;20052;-86
2021/08/22 06:46:51;;;;;;;19.00;5.35;;;16.70;83.50;;;;;;5012565;28;20081;-87
2021/08/22 06:49:18;;;;;;;12.98;5.38;;;16.70;83.50;;;;;;5007496;28;20050;-87
2021/08/22 06:51:45;;;;;;;10.55;5.30;;;16.70;83.50;;;;;;5001379;28;20518;-87
2021/08/22 06:54:11;;;;;;;12.00;4.68;;;16.70;83.50;;;;;;5011679;28;20049;-86
2021/08/22 06:56:41;;;;;;;14.25;5.00;;;16.70;83.50;;;;;;5012662;28;20050;-88
2021/08/22 06:59:09;;;;;;;15.75;5.03;;;16.70;83.50;;;;;;5013077;28;20057;-86
2021/08/22 07:01:37;;;;;;;10.07;4.45;;;16.70;83.50;;;;;;5012966;28;20053;-87
2021/08/22 07:04:08;;;;;;;17.50;5.10;;;16.70;83.50;;;;;;5012684;28;20081;-88
2021/08/22 07:06:35;;;;;;;11.77;4.97;;;16.70;83.50;;;;;;5012826;28;20506;-86
2021/08/22 07:09:02;;;;;;;14.82;4.95;;;16.70;83.50;;;;;;5012976;28;20410;-86
2021/08/22 07:11:29;;;;;;;17.13;4.75;;;16.70;83.50;;;;;;5012720;28;20058;-88
2021/08/22 07:13:56;;;;;;;11.05;4.72;;;16.70;83.50;;;;;;5013331;28;20070;-86
2021/08/22 07:16:22;;;;;;;12.75;5.30;;;16.70;83.50;;;;;;5012656;28;20503;-88
2021/08/22 07:18:49;;;;;;;12.23;4.95;;;16.70;83.50;;;;;;5012834;28;20198;-88
2021/08/22 07:21:17;;;;;;;11.02;4.45;;;16.70;83.50;;;;;;5012914;28;20041;-89
2021/08/22 07:23:44;;;;;;;12.00;4.93;;;16.80;83.50;;;;;;5013261;28;20054;-88
2021/08/22 07:26:11;;;;;;;17.63;5.32;;;16.70;83.60;;;;;;5011844;28;20057;-89
2021/08/22 07:28:38;;;;;;;15.73;5.13;;;16.70;83.60;;;;;;5012733;28;20050;-88
2021/08/22 07:31:06;;;;;;;17.52;5.05;;;16.70;83.60;;;;;;5011319;28;20663;-90
2021/08/22 07:33:34;;;;;;;14.93;5.00;;;16.70;83.60;;;;;;5012512;28;20056;-89
2021/08/22 07:36:02;;;;;;;12.88;5.05;;;16.70;83.60;;;;;;5011577;28;20537;-91
2021/08/22 07:38:30;;;;;;;19.00;5.38;;;16.70;83.60;;;;;;5012780;28;20054;-88
2021/08/22 07:40:56;;;;;;;16.55;5.85;;;16.70;83.60;;;;;;5012992;28;20498;-90
2021/08/22 07:43:23;;;;;;;11.55;4.82;;;16.80;83.60;;;;;;5012784;28;20062;-89
2021/08/22 07:45:50;;;;;;;20.73;5.70;;;16.80;83.70;;;;;;5012495;28;20077;-89
2021/08/22 07:48:17;;;;;;;13.38;5.47;;;16.80;83.70;;;;;;5011425;28;20118;-89
2021/08/22 07:50:44;;;;;;;16.75;5.40;;;16.80;83.70;;;;;;5011425;28;20050;-90
2021/08/22 07:53:15;;;;;;;17.90;6.32;;;16.80;83.80;;;;;;5011352;28;20065;-87
2021/08/22 07:55:45;;;;;;;;;;;16.80;83.80;;;;;;5014579;28;20127;-89
2021/08/22 07:58:13;;;;;;;12.40;5.35;;;16.80;83.90;;;;;;5016106;28;19976;-88
2021/08/22 08:00:43;;;;;;;19.40;5.72;;;16.80;83.90;;;;;;5016243;28;20077;-89
2021/08/22 08:03:10;;;;;;;18.27;5.80;;;16.90;84.00;;;;;;5015735;28;20050;-89
2021/08/22 08:05:37;;;;;;;13.30;5.95;;;16.90;84.00;;;;;;5016391;28;20128;-92
2021/08/22 08:08:04;;;;;;;17.13;5.22;;;16.90;84.00;;;;;;5006949;28;20072;-91
2021/08/22 08:10:31;;;;;;;14.27;5.13;;;16.90;84.00;;;;;;5014516;28;20546;-89
2021/08/22 08:12:58;;;;;;;16.63;5.95;;;16.90;84.10;;;;;;5015666;28;20046;-88
2021/08/22 08:15:25;;;;;;;13.88;5.43;;;16.90;84.10;;;;;;5015776;28;20111;-89
2021/08/22 08:17:52;;;;;;;15.27;5.25;;;16.90;84.20;;;;;;5015730;28;20053;-86
2021/08/22 08:20:19;;;;;;;23.85;5.85;;;17.00;84.30;;;;;;5015192;28;20069;-86
2021/08/22 08:22:48;;;;;;;18.33;6.18;;;17.00;84.40;;;;;;5015324;28;20052;-85
2021/08/22 08:25:16;;;;;;;16.85;5.55;;;17.00;84.70;;;;;;5015484;28;20054;-84
2021/08/22 08:27:43;;;;;;;19.45;5.80;;;17.10;85.00;;;;;;5013986;28;20049;-84
2021/08/22 08:30:11;;;;;;;13.35;5.47;;;17.20;84.90;;;;;;5014721;28;20080;-84
2021/08/22 08:32:38;;;;;;;13.13;5.97;;;17.20;84.80;;;;;;5015070;28;20049;-84
2021/08/22 08:35:12;;;;;;;16.70;5.40;;;17.20;84.70;;;;;;4995621;28;20499;-85
2021/08/22 08:37:40;;;;;;;18.55;5.95;;;17.30;84.60;;;;;;4995825;28;20054;-85
2021/08/22 08:40:11;;;;;;;22.65;6.00;;;17.30;84.60;;;;;;4995722;28;20445;-85
2021/08/22 08:42:44;;;;;;;19.17;5.95;;;17.30;84.60;;;;;;5003508;28;20047;-84
2021/08/22 08:45:25;;;;;;;19.02;5.72;;;17.30;84.60;;;;;;4998369;28;20096;-84
2021/08/22 08:47:53;;;;;;;18.23;5.75;;;17.40;84.60;;;;;;5014563;28;20457;-84
2021/08/22 08:50:40;;;;;;;16.50;6.30;;;17.30;84.40;;;;;;5014548;28;20576;-85
2021/08/22 08:53:18;;;;;;;16.00;6.10;;;17.30;84.20;;;;;;5006994;28;20454;-84
2021/08/22 08:55:45;;;;;;;20.17;6.22;;;17.30;84.20;;;;;;5014473;28;20050;-85
2021/08/22 08:58:12;;;;;;;16.83;5.90;;;17.30;84.20;;;;;;5013960;28;20580;-83
2021/08/22 09:00:40;;;;;;;19.02;5.88;;;17.30;84.20;;;;;;5013879;28;20485;-84
2021/08/22 09:03:07;;;;;;;18.75;6.22;;;17.30;84.20;;;;;;5014262;28;20454;-84
2021/08/22 09:06:04;;;;;;;17.92;6.10;;;17.30;84.20;;;;;;5014560;28;20057;-84
2021/08/22 09:08:31;;;;;;;15.10;5.70;;;17.30;84.20;;;;;;4994617;28;20522;-85
2021/08/22 09:12:08;;;;;;;21.77;6.28;;;17.30;84.40;;;;;;5013651;28;20065;-84
2021/08/22 09:15:12;;;;;;;24.83;7.45;;;17.30;84.50;;;;;;4934650;29;20056;-84
2021/08/22 09:18:40;;;;;;;19.63;5.93;;;17.40;84.60;;;;;;4934992;29;20058;-84
2021/08/22 09:21:29;;;;;;;14.10;5.32;;;17.40;85.00;;;;;;4857501;29;20115;-84
2021/08/22 09:24:29;;;;;;;21.02;5.40;;;17.50;84.90;;;;;;4843747;29;20057;-83
2021/08/22 09:27:14;;;;;;;17.58;4.93;;;17.50;84.90;;;;;;4841522;29;20102;-83
2021/08/22 09:30:03;;;;;;;16.42;5.40;;;17.50;84.50;;;;;;4840487;29;20054;-83
2021/08/22 09:33:07;;;;;;;17.77;6.30;;;17.50;84.40;;;;;;4840876;29;20122;-84
2021/08/22 09:35:58;;;;;;;14.43;5.22;;;17.60;84.40;;;;;;4822908;29;20054;-83
2021/08/22 09:39:01;;;;;;;17.42;5.47;;;17.50;84.40;;;;;;4840622;29;20046;-85
2021/08/22 09:42:03;;;;;;;19.27;5.53;;;17.50;84.30;;;;;;4840360;29;20535;-85
2021/08/22 09:45:07;;;;;;;16.00;5.43;;;17.50;84.10;;;;;;4833906;29;20168;-85
2021/08/22 09:47:52;;;;;;;16.13;5.47;;;17.50;84.10;;;;;;4822649;29;20058;-83
2021/08/22 09:50:48;;;;;;;22.27;5.70;;;17.50;84.10;;;;;;4850002;29;20056;-83
2021/08/22 09:53:49;;;;;;;18.80;5.95;;;17.50;84.20;;;;;;4890295;29;20067;-83
2021/08/22 09:56:37;;;;;;;18.15;6.50;;;17.50;84.40;;;;;;4946657;28;20483;-83
2021/08/22 09:59:10;;;;;;;18.05;6.20;;;17.50;84.50;;;;;;5004218;28;20097;-85
2021/08/22 10:02:01;;;;;;;18.27;6.10;;;17.50;84.50;;;;;;5012561;28;20058;-84
2021/08/22 10:04:56;;;;;;;15.65;6.45;;;17.60;84.70;;;;;;5012497;28;20050;-84
2021/08/22 10:07:29;;;;;;;17.48;6.20;;;17.60;84.80;;;;;;5012903;28;20104;-87
2021/08/22 10:10:20;;;;;;;16.27;6.10;;;17.60;84.90;;;;;;5012414;28;20050;-86
2021/08/22 10:12:47;;;;;;;19.42;5.93;;;17.60;84.90;;;;;;5011905;28;20046;-83
2021/08/22 10:15:19;;;;;;;14.38;6.10;;;17.70;84.90;;;;;;5012385;28;20046;-85
2021/08/22 10:17:49;;;;;;;15.05;6.18;;;17.80;84.80;;;;;;5012507;28;20046;-85
2021/08/22 10:20:19;;;;;;;24.13;6.20;;;17.80;84.80;;;;;;5010617;28;20050;-85
2021/08/22 10:22:53;;;;;;;11.75;5.65;;;17.80;84.80;;;;;;5012471;28;20049;-88
2021/08/22 10:25:46;;;;;;;13.65;5.53;;;17.90;84.70;;;;;;5012128;28;20522;-91
2021/08/22 10:28:13;;;;;;;19.55;5.90;;;17.90;84.60;;;;;;5013261;28;20549;-93
2021/08/22 10:30:43;;;;;;;17.80;5.65;;;17.90;84.60;;;;;;5045327;28;20454;-91
2021/08/22 10:33:11;;;;;;;20.05;5.40;;;17.90;84.50;;;;;;5013373;28;20054;-91
2021/08/22 10:35:40;;;;;;;18.15;6.28;;;17.90;84.40;;;;;;5014892;28;20057;-94
2021/08/22 10:38:26;;;;;;;14.93;5.97;;;17.90;84.30;;;;;;5012727;28;20457;-93
2021/08/22 10:40:54;;;;;;;21.23;5.57;;;17.90;84.30;;;;;;5013979;28;20108;-93
2021/08/22 10:43:25;;;;;;;16.77;5.75;;;17.90;84.20;;;;;;5010696;28;20086;-90
2021/08/22 10:45:52;;;;;;;15.80;4.93;;;17.90;84.10;;;;;;5004912;28;20481;-92
2021/08/22 10:48:22;;;;;;;13.93;5.18;;;17.90;84.00;;;;;;5014760;28;20050;-94
2021/08/22 10:50:58;;;;;;;14.95;5.18;;;17.80;83.90;;;;;;5017811;28;20054;-94
2021/08/22 10:53:32;;;;;;;13.82;5.75;;;17.80;83.90;;;;;;5018514;28;20058;-93
2021/08/22 10:56:20;;;;;;;13.88;5.88;;;17.80;84.10;;;;;;5014769;28;20042;-93
2021/08/22 10:58:56;;;;;;;21.77;8.68;;;17.80;84.70;;;;;;5021874;28;20053;-92
2021/08/22 11:01:34;;;;;;;17.35;9.35;;;17.90;85.00;;;;;;5016497;28;20053;-93
2021/08/22 11:04:02;;;;;;;15.32;8.45;;;18.00;85.70;;;;;;5011497;28;20104;-94
2021/08/22 11:06:29;;;;;;;12.60;6.47;;;18.20;86.10;;;;;;5003699;28;20077;-91
2021/08/22 11:08:56;;;;;;;13.40;6.30;;;18.40;85.70;;;;;;5011502;28;20057;-90
2021/08/22 11:11:23;;;;;;;20.48;6.53;;;18.40;84.90;;;;;;5011080;28;20069;-90
2021/08/22 11:13:58;;;;;;;15.07;6.93;;;18.50;84.80;;;;;;5015747;28;20426;-96
2021/08/22 11:16:46;;;;;;;12.73;7.72;;;18.50;84.60;;;;;;5015932;28;20054;-92
2021/08/22 11:19:13;;;;;;;15.18;6.50;;;18.70;84.50;;;;;;5013732;28;20053;-90
2021/08/22 11:21:40;;;;;;;15.50;6.10;;;18.70;84.10;;;;;;5010599;28;20495;-90
2021/08/22 11:24:08;;;;;;;13.77;6.57;;;18.80;83.50;;;;;;5043770;28;20050;-88
2021/08/22 11:26:35;;;;;;;14.25;6.53;;;18.80;82.80;;;;;;5011491;28;20568;-92
2021/08/22 11:29:03;;;;;;;19.67;6.05;;;18.90;83.40;;;;;;5011462;28;20050;-89
2021/08/22 11:31:34;;;;;;;14.63;5.80;;;19.00;83.60;;;;;;5013743;28;20449;-92
2021/08/22 11:34:14;;;;;;;16.85;6.10;;;19.10;82.70;;;;;;5015602;28;20061;-92
2021/08/22 11:36:42;;;;;;;12.85;5.85;;;19.30;81.80;;;;;;5015785;28;20042;-90
2021/08/22 11:39:19;;;;;;;13.35;5.85;;;19.30;81.80;;;;;;5018111;28;20054;-90
2021/08/22 11:41:49;;;;;;;11.98;4.93;;;19.40;82.30;;;;;;5021017;28;20495;-91
2021/08/22 11:44:23;;;;;;;12.75;4.38;;;19.50;80.90;;;;;;5025484;28;20113;-94
2021/08/22 11:46:52;;;;;;;10.25;4.60;;;19.60;81.00;;;;;;5029450;28;20054;-93
2021/08/22 11:49:19;;;;;;;11.75;3.70;;;19.70;81.40;;;;;;5028407;28;20085;-92
2021/08/22 11:51:54;;;;;;;7.35;3.90;;;19.80;81.40;;;;;;5026319;28;20081;-89
2021/08/22 11:54:22;;;;;;;6.80;3.63;;;19.90;80.90;;;;;;5035020;28;20056;-93
2021/08/22 11:56:49;;;;;;;16.30;4.03;;;20.00;80.70;;;;;;5033096;28;20049;-90
2021/08/22 11:59:42;;;;;;;9.20;3.35;;;20.10;80.50;;;;;;5035222;28;20100;-94
2021/08/22 12:02:20;;;;;;;8.18;3.33;;;20.20;80.10;;;;;;5021935;28;20050;-91
2021/08/22 12:04:47;;;;;;;7.82;2.97;;;20.40;80.10;;;;;;5020993;28;20057;-93
2021/08/22 12:07:19;;;;;;;7.93;2.72;;;20.40;79.60;;;;;;5017357;28;20045;-94
2021/08/22 12:09:50;;;;;;;6.25;2.80;;;20.60;79.40;;;;;;5019514;28;20108;-92
2021/08/22 12:12:21;;;;;;;5.15;2.38;;;20.80;78.90;;;;;;5050715;28;20042;-92
2021/08/22 12:14:49;;;;;;;6.22;2.72;;;20.90;77.60;;;;;;5016195;28;20053;-92
2021/08/22 12:17:23;;;;;;;5.28;2.30;;;21.00;77.90;;;;;;5014899;28;20050;-94
2021/08/22 12:19:50;;;;;;;10.30;2.47;;;21.30;77.60;;;;;;5016571;28;20057;-92
2021/08/22 12:22:17;;;;;;;10.00;2.30;;;21.40;76.90;;;;;;5017230;28;20049;-90
2021/08/22 12:24:48;;;;;;;5.50;2.20;;;21.40;74.40;;;;;;5017250;28;20104;-93
2021/08/22 12:27:26;;;;;;;9.88;2.58;;;21.40;74.10;;;;;;5016380;28;20045;-94
2021/08/22 12:30:06;;;;;;;9.18;2.80;;;21.30;74.00;;;;;;5017143;28;20046;-90
2021/08/22 12:32:37;;;;;;;8.35;2.88;;;21.30;73.70;;;;;;5017201;28;20097;-93
2021/08/22 12:35:07;;;;;;;7.97;2.75;;;21.30;74.00;;;;;;5014970;28;20096;-95
2021/08/22 12:37:34;;;;;;;5.40;2.42;;;21.30;74.50;;;;;;5015063;28;20058;-93
2021/08/22 12:40:05;;;;;;;10.68;2.85;;;21.20;74.90;;;;;;5014272;28;20046;-90
2021/08/22 12:42:34;;;;;;;6.15;3.10;;;21.30;75.00;;;;;;5014994;28;20046;-94
2021/08/22 12:45:01;;;;;;;9.77;2.80;;;21.30;75.20;;;;;;5014444;28;20606;-89
2021/08/22 12:47:28;;;;;;;12.07;3.03;;;21.40;75.70;;;;;;5015974;28;20490;-94
2021/08/22 12:49:55;;;;;;;8.52;2.83;;;21.50;74.90;;;;;;5016324;28;20477;-91
2021/08/22 12:52:26;;;;;;;9.38;3.40;;;21.70;74.80;;;;;;5017034;28;20050;-91
2021/08/22 12:54:54;;;;;;;5.88;2.72;;;21.80;74.50;;;;;;5015275;28;20057;-94
2021/08/22 12:57:21;;;;;;;11.10;2.92;;;21.80;74.20;;;;;;5015843;28;20045;-92